TimeMST,TemperatureF,Dew PointF,Humidity,Sea Level PressureIn,VisibilityMPH,Wind Direction,Wind SpeedMPH,Gust SpeedMPH,PrecipitationIn,Events,Conditions,WindDirDegrees,DateUTC
12:53 AM,21.9,18.0,85,30.12,10.0,Calm,Calm,-,N/A,,Clear,0,2013-03-03 07:53:00
1:53 AM,21.9,18.0,85,30.09,10.0,WSW,5.8,-,N/A,,Clear,240,2013-03-03 08:53:00
2:53 AM,19.9,17.1,89,30.06,10.0,Calm,Calm,-,N/A,,Clear,0,2013-03-03 09:53:00
3:53 AM,23.0,19.9,88,30.02,10.0,Calm,Calm,-,N/A,,Clear,0,2013-03-03 10:53:00
4:53 AM,21.9,18.0,85,30.01,10.0,Calm,Calm,-,N/A,,Partly Cloudy,0,2013-03-03 11:53:00
5:53 AM,32.0,21.0,64,29.97,10.0,South,4.6,-,N/A,,Overcast,190,2013-03-03 12:53:00
6:53 AM,30.9,24.1,76,29.99,10.0,Calm,Calm,-,N/A,,Overcast,0,2013-03-03 13:53:00
7:53 AM,37.9,23.0,55,29.98,10.0,WNW,10.4,20.7,N/A,,Overcast,300,2013-03-03 14:53:00
8:53 AM,39.0,24.1,55,29.98,10.0,NNW,9.2,-,N/A,,Overcast,330,2013-03-03 15:53:00
9:53 AM,39.9,27.0,60,29.97,10.0,WSW,4.6,-,N/A,,Overcast,250,2013-03-03 16:53:00
10:53 AM,42.1,23.0,47,29.94,10.0,WSW,10.4,-,N/A,,Overcast,250,2013-03-03 17:53:00
11:53 AM,44.1,24.1,45,29.90,10.0,SW,12.7,-,N/A,,Mostly Cloudy,230,2013-03-03 18:53:00
12:53 PM,45.0,24.1,44,29.88,10.0,WSW,9.2,-,N/A,,Scattered Clouds,240,2013-03-03 19:53:00
1:53 PM,45.0,26.1,48,29.86,10.0,SW,13.8,-,N/A,,Mostly Cloudy,230,2013-03-03 20:53:00
2:53 PM,43.0,26.1,51,29.87,10.0,WSW,9.2,-,N/A,,Overcast,250,2013-03-03 21:53:00
3:53 PM,44.1,26.1,49,29.85,10.0,West,10.4,-,N/A,,Overcast,260,2013-03-03 22:53:00
4:53 PM,42.1,27.0,55,29.85,10.0,WSW,10.4,-,N/A,,Scattered Clouds,240,2013-03-03 23:53:00
5:53 PM,39.0,28.0,65,29.81,10.0,WSW,9.2,-,N/A,,Overcast,240,2013-03-04 00:53:00
6:53 PM,39.0,27.0,62,29.82,10.0,West,10.4,-,N/A,,Overcast,260,2013-03-04 01:53:00
7:53 PM,37.0,28.0,70,29.79,10.0,Calm,Calm,-,N/A,,Overcast,0,2013-03-04 02:53:00
8:53 PM,39.0,28.0,65,29.77,10.0,WNW,5.8,-,0.00,,Overcast,300,2013-03-04 03:53:00
9:53 PM,35.1,30.9,85,29.81,7.0,West,13.8,-,0.01,Snow,Light Snow,270,2013-03-04 04:53:00
10:00 PM,35.6,30.2,81,29.95,7.0,West,11.5,-,0.00,Snow,Light Snow,280,2013-03-04 05:00:00
10:14 PM,33.8,32.0,93,29.95,9.0,West,9.2,-,0.00,,Overcast,280,2013-03-04 05:14:00
10:53 PM,34.0,30.9,89,29.78,10.0,WNW,4.6,-,0.00,,Overcast,290,2013-03-04 05:53:00
11:53 PM,34.0,30.0,85,29.77,10.0,WNW,3.5,-,N/A,,Overcast,290,2013-03-04 06:53:00